EDT,Max TemperatureF,Mean TemperatureF,Min TemperatureF,Max Dew PointF,MeanDew PointF,Min DewpointF,Max Humidity, Mean Humidity, Min Humidity, Max Sea Level PressureIn, Mean Sea Level PressureIn, Min Sea Level PressureIn, Max VisibilityMiles, Mean VisibilityMiles, Min VisibilityMiles, Max Wind SpeedMPH, Mean Wind SpeedMPH, Max Gust SpeedMPH,PrecipitationIn, CloudCover, Events, WindDirDegrees
2013-3-1,42,38,33,36,30,25,100,77,53,29.68,29.59,29.52,10,9,6,12,2,18,0.00,8,,333
2013-3-2,42,38,34,28,25,24,73,60,51,29.68,29.65,29.62,10,10,10,12,6,17,0.00,7,,313
2013-3-3,42,38,33,32,27,24,93,71,58,29.65,29.61,29.56,10,10,5,9,6,26,0.00,8,Snow,302
2013-3-4,41,36,30,25,22,19,73,60,47,29.73,29.63,29.58,10,10,10,24,12,31,0.00,5,,305
2013-3-5,45,38,32,34,28,22,96,69,51,30.06,29.96,29.76,10,10,10,13,7,20,0.00,7,,4
2013-3-6,39,37,35,36,33,28,93,85,65,30.10,30.05,30.03,10,8,3,22,11,40,0.16,8,Rain-Snow,55
2013-3-7,37,34,30,32,31,28,100,91,73,30.03,30.00,29.97,10,1,0,23,16,33,0.30,8,Fog-Snow,15
2013-3-8,42,36,30,32,28,21,100,84,45,30.13,29.99,29.92,10,2,0,20,12,30,0.72,6,Fog-Snow,9
2013-3-9,39,30,21,29,24,19,96,71,54,30.35,30.26,30.14,10,8,1,13,6,18,0.00,0,,29
2013-3-10,42,32,21,34,27,19,100,85,62,30.41,30.36,30.32,10,8,0,8,1,,0.00,3,Fog,92
2013-3-11,50,42,35,45,36,32,100,81,63,30.32,30.24,30.15,10,10,10,14,6,,0.00,5,,190
2013-3-12,57,48,39,55,50,39,100,95,93,30.16,29.97,29.73,10,7,1,16,4,26,0.45,7,Rain,161
2013-3-13,52,44,32,39,29,19,100,60,31,29.79,29.75,29.70,10,10,7,15,7,24,0.00,3,,291
2013-3-14,37,31,24,29,16,6,85,53,38,29.84,29.77,29.71,10,10,10,21,9,30,0.00,5,,281
2013-3-15,41,31,21,31,13,3,85,49,24,29.88,29.77,29.65,10,10,7,14,10,23,0.00,4,Snow,277
2013-3-16,39,34,28,32,16,6,92,50,27,29.87,29.81,29.70,10,10,10,13,6,16,0.00,4,,307
2013-3-17,39,30,24,26,13,2,96,53,24,30.32,30.06,29.88,10,10,10,15,4,22,0.00,0,,325
2013-3-18,39,28,19,30,15,0,100,60,28,30.46,30.34,30.25,10,8,1,13,4,18,0.01,3,Snow,112
2013-3-19,37,34,30,38,33,26,100,97,85,30.23,29.87,29.60,10,2,0,16,10,26,0.85,8,Fog-Rain-Snow,50
2013-3-20,39,32,26,27,21,15,92,67,41,29.82,29.75,29.70,10,10,10,22,9,30,0.00,3,,279
2013-3-21,36,30,25,30,25,15,100,80,46,29.81,29.68,29.61,10,8,2,8,2,,0.00,8,Snow,16
2013-3-22,41,34,28,22,18,14,67,53,38,29.75,29.67,29.61,10,10,10,15,8,26,0.00,4,,295
2013-3-23,44,36,30,22,19,17,69,50,35,29.80,29.72,29.65,10,10,10,21,12,33,0.00,2,,287
2013-3-24,48,39,30,29,22,18,76,52,34,29.82,29.78,29.73,10,10,10,14,8,21,0.00,1,,295
2013-3-25,45,37,30,35,31,25,86,75,68,29.76,29.62,29.52,10,10,10,15,6,29,0.00,5,,42
2013-3-26,50,42,35,34,26,19,93,62,31,29.78,29.63,29.52,10,9,2,15,8,22,0.03,6,Snow,331
2013-3-27,55,40,26,30,23,19,92,50,29,29.86,29.79,29.74,10,10,10,15,4,21,0.00,3,,319
2013-3-28,48,42,37,36,33,28,93,72,48,30.02,29.93,29.86,10,10,10,12,7,16,0.00,8,,351
2013-3-29,57,44,30,35,30,25,96,60,31,30.04,30.02,29.96,10,10,10,15,4,22,0.00,4,,307
2013-3-30,57,45,33,32,24,15,85,46,19,30.10,30.05,30.00,10,10,10,13,6,20,0.00,2,,319
2013-3-31,60,42,26,43,28,21,92,59,23,30.13,30.02,29.76,10,10,8,17,4,26,0.00,2,Rain,184